Time;durP1;ratioP1;P1;durP2;ratioP2;P2;SDS_P1;SDS_P2;PMS_P1;PMS_P2;Temp;Humidity;BMP_temperature;BMP_pressure;BME280_temperature;BME280_humidity;BME280_pressure;Samples;Min_cycle;Max_cycle;Signal;HPM_P1;HPM_P2
2023/05/10 00:00:14;;;;;;;47.47;30.10;;;;;;;;;;5013515;28;20668;-70
2023/05/10 00:02:39;;;;;;;48.35;31.27;;;;;;;;;;5012690;28;20033;-70
2023/05/10 00:05:05;;;;;;;59.28;35.75;;;;;;;;;;5012065;28;20053;-70
2023/05/10 00:07:32;;;;;;;54.47;37.03;;;;;;;;;;5013739;28;20041;-70
2023/05/10 00:09:57;;;;;;;55.90;33.47;;;;;;;;;;5013605;28;20064;-70
2023/05/10 00:12:25;;;;;;;52.38;33.38;;;;;;;;;;5044759;28;20038;-70
2023/05/10 00:14:53;;;;;;;50.13;32.22;;;;;;;;;;5010390;28;20038;-69
2023/05/10 00:17:18;;;;;;;50.83;29.88;;;;;;;;;;5014146;28;20037;-71
2023/05/10 00:19:43;;;;;;;52.15;33.30;;;;;;;;;;5014735;28;20053;-69
2023/05/10 00:22:08;;;;;;;56.35;34.67;;;;;;;;;;5045991;28;20184;-70
2023/05/10 00:24:36;;;;;;;58.13;34.65;;;;;;;;;;5018641;28;20098;-70
2023/05/10 00:27:03;;;;;;;52.30;32.97;;;;;;;;;;5018445;28;22173;-70
2023/05/10 00:29:30;;;;;;;42.75;27.35;;;;;;;;;;5015473;28;22256;-70
2023/05/10 00:31:56;;;;;;;46.08;29.95;;;;;;;;;;5018793;28;20026;-70
2023/05/10 00:34:21;;;;;;;55.20;34.47;;;;;;;;;;5013588;28;20184;-72
2023/05/10 00:36:46;;;;;;;44.17;32.15;;;;;;;;;;5018247;28;20129;-71
2023/05/10 00:39:12;;;;;;;58.40;31.45;;;;;;;;;;5047463;28;20691;-71
2023/05/10 00:41:37;;;;;;;51.28;33.78;;;;;;;;;;5047029;28;20034;-70
2023/05/10 00:44:05;;;;;;;55.10;33.05;;;;;;;;;;5008645;28;20712;-70
2023/05/10 00:46:30;;;;;;;60.03;33.00;;;;;;;;;;5048676;28;22899;-70
2023/05/10 00:48:56;;;;;;;63.22;31.35;;;;;;;;;;5017631;28;20033;-69
2023/05/10 00:51:21;;;;;;;67.50;33.60;;;;;;;;;;5042645;28;20034;-69
2023/05/10 00:53:46;;;;;;;117.25;30.95;;;;;;;;;;5043600;28;20174;-69
2023/05/10 00:56:12;;;;;;;132.02;27.70;;;;;;;;;;5013256;28;20037;-69
2023/05/10 00:58:38;;;;;;;113.90;27.65;;;;;;;;;;5017351;28;20065;-69
2023/05/10 01:01:04;;;;;;;117.20;22.50;;;;;;;;;;5017873;28;20396;-72
2023/05/10 01:03:29;;;;;;;155.55;20.25;;;;;;;;;;5014676;28;20052;-69
2023/05/10 01:05:57;;;;;;;154.93;21.60;;;;;;;;;;5043754;28;20049;-69
2023/05/10 01:08:22;;;;;;;93.45;19.70;;;;;;;;;;5013372;28;20119;-71
2023/05/10 01:10:49;;;;;;;156.38;20.50;;;;;;;;;;5022327;28;20090;-69
2023/05/10 01:13:18;;;;;;;173.02;21.17;;;;;;;;;;5012539;28;20036;-69
2023/05/10 01:15:44;;;;;;;144.68;20.52;;;;;;;;;;5042967;28;20848;-69
2023/05/10 01:18:10;;;;;;;102.00;20.40;;;;;;;;;;5013520;28;20025;-69
2023/05/10 01:20:43;;;;;;;192.40;21.13;;;;;;;;;;5010297;28;20112;-70
2023/05/10 01:23:27;;;;;;;122.90;19.58;;;;;;;;;;5011668;28;20159;-70
2023/05/10 01:26:17;;;;;;;110.60;20.55;;;;;;;;;;5016366;28;20492;-70
2023/05/10 01:28:56;;;;;;;150.48;21.50;;;;;;;;;;5018869;28;20037;-70
2023/05/10 01:31:44;;;;;;;79.43;17.48;;;;;;;;;;5017713;28;20044;-70
2023/05/10 01:34:16;;;;;;;148.75;20.38;;;;;;;;;;5048800;28;20164;-69
2023/05/10 01:36:51;;;;;;;117.28;18.95;;;;;;;;;;5048717;28;20033;-69
2023/05/10 01:39:26;;;;;;;105.30;18.08;;;;;;;;;;5017005;28;20472;-70
2023/05/10 01:42:03;;;;;;;139.23;15.27;;;;;;;;;;5015872;28;20109;-69
2023/05/10 01:44:28;;;;;;;139.77;16.75;;;;;;;;;;5046270;28;20491;-69
2023/05/10 01:46:57;;;;;;;95.97;15.75;;;;;;;;;;5011769;28;20048;-69
2023/05/10 01:49:25;;;;;;;147.27;15.48;;;;;;;;;;5016160;28;20037;-70
2023/05/10 01:51:51;;;;;;;85.18;13.43;;;;;;;;;;5042249;28;20068;-70
2023/05/10 01:54:20;;;;;;;107.20;13.05;;;;;;;;;;5013204;28;20115;-71
2023/05/10 01:56:47;;;;;;;47.80;11.23;;;;;;;;;;5043588;28;20048;-70
2023/05/10 01:59:15;;;;;;;58.83;12.82;;;;;;;;;;5016154;28;20037;-70
2023/05/10 02:01:41;;;;;;;67.80;14.82;;;;;;;;;;4994916;28;20485;-70
2023/05/10 02:04:08;;;;;;;49.50;13.02;;;;;;;;;;5025923;28;20045;-70
2023/05/10 02:06:34;;;;;;;38.50;13.43;;;;;;;;;;5006240;28;20052;-70
2023/05/10 02:09:00;;;;;;;54.85;15.02;;;;;;;;;;5004061;28;20041;-70
2023/05/10 02:11:27;;;;;;;52.72;13.50;;;;;;;;;;4993055;28;20119;-70
2023/05/10 02:13:53;;;;;;;43.83;12.25;;;;;;;;;;4993775;28;20045;-70
2023/05/10 02:16:20;;;;;;;52.88;14.43;;;;;;;;;;4991063;28;20123;-70
2023/05/10 02:18:46;;;;;;;70.28;15.27;;;;;;;;;;5025156;28;20060;-70
2023/05/10 02:21:15;;;;;;;68.25;14.52;;;;;;;;;;4999464;28;22379;-71
2023/05/10 02:23:41;;;;;;;99.22;14.77;;;;;;;;;;4994013;28;20099;-71
2023/05/10 02:26:06;;;;;;;71.50;14.80;;;;;;;;;;4990000;28;20038;-70
2023/05/10 02:28:32;;;;;;;72.18;15.23;;;;;;;;;;4997522;28;20109;-71
2023/05/10 02:30:58;;;;;;;41.92;14.90;;;;;;;;;;4991670;28;20038;-71
2023/05/10 02:33:23;;;;;;;44.83;16.48;;;;;;;;;;4995697;28;20045;-71
2023/05/10 02:35:50;;;;;;;33.55;14.18;;;;;;;;;;4997808;28;20034;-71
2023/05/10 02:38:16;;;;;;;52.83;16.75;;;;;;;;;;4998614;28;20498;-72
2023/05/10 02:40:42;;;;;;;59.45;15.80;;;;;;;;;;5002408;28;20041;-71
2023/05/10 02:43:11;;;;;;;71.05;17.33;;;;;;;;;;4996593;28;20049;-71
2023/05/10 02:45:40;;;;;;;40.63;15.30;;;;;;;;;;4999531;28;20030;-71
2023/05/10 02:48:05;;;;;;;35.92;14.00;;;;;;;;;;5000582;28;20072;-72
2023/05/10 02:50:33;;;;;;;36.30;14.90;;;;;;;;;;5007132;28;20037;-72
2023/05/10 02:53:09;;;;;;;38.13;15.98;;;;;;;;;;5000151;28;20037;-71
2023/05/10 02:55:39;;;;;;;55.03;15.15;;;;;;;;;;5000665;28;20092;-71
2023/05/10 02:58:04;;;;;;;45.67;14.65;;;;;;;;;;4999371;28;20041;-71
2023/05/10 03:00:30;;;;;;;98.65;17.33;;;;;;;;;;5031480;28;20080;-70
2023/05/10 03:02:58;;;;;;;31.10;13.70;;;;;;;;;;4996993;28;20033;-69
2023/05/10 03:05:23;;;;;;;37.05;15.25;;;;;;;;;;4999681;28;20049;-70
2023/05/10 03:07:49;;;;;;;42.03;15.40;;;;;;;;;;5026538;28;20051;-71
2023/05/10 03:10:15;;;;;;;41.45;15.52;;;;;;;;;;4996020;28;21496;-70
2023/05/10 03:12:58;;;;;;;46.10;16.02;;;;;;;;;;4996458;28;20049;-69
2023/05/10 03:15:36;;;;;;;39.88;16.15;;;;;;;;;;5026470;28;20046;-70
2023/05/10 03:18:12;;;;;;;41.00;15.88;;;;;;;;;;4994678;28;20114;-71
2023/05/10 03:20:47;;;;;;;51.22;16.35;;;;;;;;;;5043506;28;20045;-72
2023/05/10 03:23:14;;;;;;;48.03;17.08;;;;;;;;;;4996552;28;20104;-69
2023/05/10 03:25:40;;;;;;;57.83;18.02;;;;;;;;;;5001629;28;20525;-69
2023/05/10 03:28:06;;;;;;;35.50;16.52;;;;;;;;;;5001531;28;20033;-70
2023/05/10 03:30:33;;;;;;;40.60;17.42;;;;;;;;;;5000725;28;20120;-70
2023/05/10 03:33:07;;;;;;;35.60;15.23;;;;;;;;;;5021648;28;20033;-70
2023/05/10 03:35:32;;;;;;;39.42;16.88;;;;;;;;;;5054434;28;20041;-71
2023/05/10 03:37:58;;;;;;;48.30;18.65;;;;;;;;;;5037950;28;20136;-70
2023/05/10 03:40:23;;;;;;;51.95;17.65;;;;;;;;;;5055896;28;20097;-71
2023/05/10 03:42:49;;;;;;;55.40;18.55;;;;;;;;;;5024642;28;20039;-71
2023/05/10 03:45:14;;;;;;;51.88;18.15;;;;;;;;;;5057449;28;20072;-71
2023/05/10 03:47:40;;;;;;;37.58;16.02;;;;;;;;;;5024946;28;20029;-70
2023/05/10 03:50:08;;;;;;;42.38;17.58;;;;;;;;;;5057213;28;20531;-71
2023/05/10 03:52:33;;;;;;;38.40;19.35;;;;;;;;;;5022217;28;20037;-71
2023/05/10 03:55:02;;;;;;;39.13;18.45;;;;;;;;;;5051099;28;20046;-70
2023/05/10 03:57:27;;;;;;;47.47;20.58;;;;;;;;;;5020594;28;20432;-69
2023/05/10 03:59:53;;;;;;;50.65;21.08;;;;;;;;;;5018323;28;20045;-71
2023/05/10 04:02:18;;;;;;;49.78;21.52;;;;;;;;;;5017098;28;20048;-71
2023/05/10 04:04:43;;;;;;;45.10;21.90;;;;;;;;;;5049432;28;20399;-71
2023/05/10 04:07:10;;;;;;;48.75;22.00;;;;;;;;;;5026265;28;20045;-70
2023/05/10 04:09:35;;;;;;;66.35;25.23;;;;;;;;;;5017022;28;20037;-71
2023/05/10 04:12:03;;;;;;;37.88;21.00;;;;;;;;;;5016752;28;20040;-71
2023/05/10 04:14:28;;;;;;;44.10;22.05;;;;;;;;;;5016179;28;20386;-71
2023/05/10 04:16:53;;;;;;;38.38;19.75;;;;;;;;;;5017837;28;20041;-70
2023/05/10 04:19:18;;;;;;;38.08;18.65;;;;;;;;;;5016722;28;20096;-70
2023/05/10 04:21:44;;;;;;;43.92;21.27;;;;;;;;;;5043011;28;20037;-70
2023/05/10 04:24:09;;;;;;;45.72;23.48;;;;;;;;;;5012084;28;20474;-71
2023/05/10 04:26:39;;;;;;;41.85;23.08;;;;;;;;;;5011829;28;20382;-71
2023/05/10 04:29:07;;;;;;;46.67;23.83;;;;;;;;;;5045928;28;20041;-70
2023/05/10 04:31:32;;;;;;;43.40;21.20;;;;;;;;;;5013937;28;20098;-69
2023/05/10 04:33:57;;;;;;;41.58;20.80;;;;;;;;;;5015216;28;20037;-69
2023/05/10 04:36:25;;;;;;;35.10;18.25;;;;;;;;;;5012791;28;20770;-70
2023/05/10 04:38:50;;;;;;;38.67;18.42;;;;;;;;;;5049312;28;20091;-70
2023/05/10 04:41:15;;;;;;;37.28;20.63;;;;;;;;;;5014122;28;20107;-70
2023/05/10 04:43:41;;;;;;;39.05;20.65;;;;;;;;;;5012373;28;20049;-70
2023/05/10 04:46:07;;;;;;;37.35;18.80;;;;;;;;;;5049107;28;20041;-70
2023/05/10 04:48:32;;;;;;;31.30;16.90;;;;;;;;;;5020613;28;20153;-70
2023/05/10 04:50:57;;;;;;;32.38;17.23;;;;;;;;;;5022132;28;20033;-70
2023/05/10 04:53:24;;;;;;;30.00;16.27;;;;;;;;;;5020479;28;20030;-71
2023/05/10 04:55:50;;;;;;;37.45;18.90;;;;;;;;;;5050957;28;20083;-70
2023/05/10 04:58:15;;;;;;;39.50;18.45;;;;;;;;;;5033810;28;20034;-70
2023/05/10 05:00:40;;;;;;;40.75;19.60;;;;;;;;;;5024093;28;20591;-71
2023/05/10 05:03:05;;;;;;;35.55;19.90;;;;;;;;;;5029442;28;20068;-71
2023/05/10 05:05:31;;;;;;;42.90;21.60;;;;;;;;;;5011466;28;20487;-74
2023/05/10 05:07:58;;;;;;;36.75;19.10;;;;;;;;;;5014912;28;20112;-71
2023/05/10 05:10:24;;;;;;;30.23;17.15;;;;;;;;;;4990128;28;20406;-72
2023/05/10 05:12:49;;;;;;;36.00;18.23;;;;;;;;;;4989974;28;20045;-73
2023/05/10 05:15:17;;;;;;;33.25;17.88;;;;;;;;;;4997499;28;20060;-74
2023/05/10 05:17:44;;;;;;;39.83;17.35;;;;;;;;;;5013295;28;20044;-77
2023/05/10 05:20:10;;;;;;;33.85;16.52;;;;;;;;;;4993423;28;20582;-77
2023/05/10 05:22:38;;;;;;;34.25;16.60;;;;;;;;;;4994143;28;20026;-78
2023/05/10 05:25:04;;;;;;;26.48;14.73;;;;;;;;;;4992358;28;20129;-76
2023/05/10 05:27:29;;;;;;;31.02;15.20;;;;;;;;;;4994423;28;20038;-77
2023/05/10 05:29:58;;;;;;;37.95;17.20;;;;;;;;;;5021288;28;20076;-75
2023/05/10 05:32:24;;;;;;;37.72;16.60;;;;;;;;;;4992220;28;20041;-75
2023/05/10 05:34:49;;;;;;;30.85;16.58;;;;;;;;;;4993682;28;20030;-76
2023/05/10 05:37:15;;;;;;;30.35;15.80;;;;;;;;;;4992074;28;20038;-77
2023/05/10 05:39:40;;;;;;;32.85;15.88;;;;;;;;;;4994760;28;20148;-76
2023/05/10 05:42:05;;;;;;;30.00;15.32;;;;;;;;;;4994925;28;20036;-77
2023/05/10 05:44:34;;;;;;;31.92;15.35;;;;;;;;;;4993966;28;20687;-75
2023/05/10 05:47:04;;;;;;;30.33;15.52;;;;;;;;;;4986878;28;20100;-77
2023/05/10 05:49:29;;;;;;;34.63;18.10;;;;;;;;;;4986488;28;20111;-76
2023/05/10 05:51:58;;;;;;;31.65;14.75;;;;;;;;;;4986789;28;20041;-77
2023/05/10 05:54:23;;;;;;;33.03;15.57;;;;;;;;;;4989397;28;20042;-79
2023/05/10 05:56:48;;;;;;;34.90;16.00;;;;;;;;;;4999252;28;20037;-74
2023/05/10 05:59:16;;;;;;;28.98;14.68;;;;;;;;;;4965399;28;20577;-75
2023/05/10 06:01:43;;;;;;;30.55;15.48;;;;;;;;;;4967370;28;20065;-74
2023/05/10 06:04:08;;;;;;;32.97;15.77;;;;;;;;;;4969080;28;20095;-74
2023/05/10 06:06:34;;;;;;;53.75;18.33;;;;;;;;;;4985521;28;20046;-75
2023/05/10 06:09:01;;;;;;;35.05;15.93;;;;;;;;;;4988217;28;20034;-75
2023/05/10 06:11:26;;;;;;;34.88;15.60;;;;;;;;;;4994308;28;20117;-76
2023/05/10 06:13:51;;;;;;;29.13;14.88;;;;;;;;;;4989245;28;20134;-76
2023/05/10 06:16:17;;;;;;;37.42;16.42;;;;;;;;;;4993576;28;20137;-72
2023/05/10 06:18:42;;;;;;;35.45;15.88;;;;;;;;;;4988972;28;20065;-74
2023/05/10 06:21:10;;;;;;;30.92;15.73;;;;;;;;;;4986067;28;20084;-70
2023/05/10 06:23:36;;;;;;;40.00;18.63;;;;;;;;;;5004834;28;20468;-71
2023/05/10 06:26:01;;;;;;;33.40;17.13;;;;;;;;;;4985580;28;20053;-71
2023/05/10 06:28:26;;;;;;;24.88;14.10;;;;;;;;;;4985916;28;20410;-70
2023/05/10 06:30:54;;;;;;;36.03;14.60;;;;;;;;;;4994583;28;20048;-70
2023/05/10 06:33:21;;;;;;;32.28;15.60;;;;;;;;;;5038680;28;20030;-70
2023/05/10 06:35:47;;;;;;;27.92;15.38;;;;;;;;;;5007611;28;20041;-73
2023/05/10 06:38:12;;;;;;;22.08;13.63;;;;;;;;;;5007618;28;20118;-69
2023/05/10 06:40:43;;;;;;;26.60;13.63;;;;;;;;;;5009724;28;20041;-72
2023/05/10 06:43:08;;;;;;;23.80;13.48;;;;;;;;;;5004968;28;20444;-72
2023/05/10 06:45:33;;;;;;;18.27;12.63;;;;;;;;;;5011320;28;20045;-72
2023/05/10 06:48:01;;;;;;;20.67;12.55;;;;;;;;;;5039829;28;20079;-72
2023/05/10 06:50:26;;;;;;;17.98;11.10;;;;;;;;;;5039126;28;20037;-71
2023/05/10 06:52:51;;;;;;;19.45;10.75;;;;;;;;;;5038971;28;20037;-71
2023/05/10 06:55:17;;;;;;;22.00;11.50;;;;;;;;;;5039339;28;20033;-72
2023/05/10 06:57:42;;;;;;;17.27;10.63;;;;;;;;;;5007651;28;20187;-72
2023/05/10 07:00:09;;;;;;;15.43;9.85;;;;;;;;;;5009703;28;20044;-71
2023/05/10 07:02:34;;;;;;;19.00;9.95;;;;;;;;;;5008780;28;20095;-72
2023/05/10 07:05:02;;;;;;;13.93;9.05;;;;;;;;;;5041454;28;20053;-71
2023/05/10 07:07:28;;;;;;;12.95;8.77;;;;;;;;;;5025450;28;20042;-71
2023/05/10 07:09:54;;;;;;;14.57;9.23;;;;;;;;;;5011176;28;20061;-73
2023/05/10 07:12:19;;;;;;;15.00;9.15;;;;;;;;;;5040642;28;20041;-72
2023/05/10 07:14:45;;;;;;;15.00;9.63;;;;;;;;;;5008797;28;20068;-71
2023/05/10 07:17:13;;;;;;;15.07;9.35;;;;;;;;;;5038267;28;20044;-73
2023/05/10 07:19:38;;;;;;;12.80;8.45;;;;;;;;;;5006067;28;20033;-73
2023/05/10 07:22:03;;;;;;;13.10;9.32;;;;;;;;;;5037092;28;20049;-73
2023/05/10 07:24:29;;;;;;;14.27;8.82;;;;;;;;;;5009779;28;20493;-72
2023/05/10 07:26:55;;;;;;;14.05;8.63;;;;;;;;;;5005389;28;20127;-72
2023/05/10 07:29:20;;;;;;;13.15;8.50;;;;;;;;;;5006500;28;20043;-70
2023/05/10 07:31:45;;;;;;;14.45;8.50;;;;;;;;;;5005248;28;20037;-70
2023/05/10 07:34:11;;;;;;;14.77;8.55;;;;;;;;;;5008502;28;20041;-73
2023/05/10 07:36:36;;;;;;;12.88;9.25;;;;;;;;;;5022213;28;20057;-72
2023/05/10 07:39:01;;;;;;;16.95;9.07;;;;;;;;;;5015388;28;20068;-72
2023/05/10 07:41:27;;;;;;;14.43;9.82;;;;;;;;;;5015068;28;20076;-71
2023/05/10 07:43:52;;;;;;;15.15;9.88;;;;;;;;;;5004895;28;20652;-71
2023/05/10 07:46:19;;;;;;;19.50;11.73;;;;;;;;;;5034878;28;20045;-70
2023/05/10 07:48:44;;;;;;;17.45;11.20;;;;;;;;;;5037353;28;20045;-72
2023/05/10 07:51:10;;;;;;;20.23;10.60;;;;;;;;;;5040382;28;20107;-72
2023/05/10 07:53:35;;;;;;;17.20;10.00;;;;;;;;;;5005980;28;20063;-73
2023/05/10 07:56:25;;;;;;;16.67;9.75;;;;;;;;;;5010307;28;20043;-73
2023/05/10 07:58:50;;;;;;;16.48;9.07;;;;;;;;;;5007039;28;20029;-72
2023/05/10 08:01:15;;;;;;;23.95;10.27;;;;;;;;;;5007702;28;20040;-71
2023/05/10 08:03:41;;;;;;;13.75;8.55;;;;;;;;;;5009197;28;20113;-72
2023/05/10 08:06:06;;;;;;;14.27;8.73;;;;;;;;;;5039491;28;20029;-68
2023/05/10 08:08:31;;;;;;;16.98;8.50;;;;;;;;;;5043380;28;20065;-71
2023/05/10 08:10:56;;;;;;;12.85;7.72;;;;;;;;;;5016011;28;20033;-72
2023/05/10 08:13:24;;;;;;;16.13;8.75;;;;;;;;;;5013390;28;20048;-74
2023/05/10 08:15:54;;;;;;;13.13;7.97;;;;;;;;;;5010102;28;20033;-71
2023/05/10 08:18:19;;;;;;;15.52;7.80;;;;;;;;;;5023666;28;20090;-74
2023/05/10 08:20:47;;;;;;;15.35;9.48;;;;;;;;;;5012110;28;20508;-73
2023/05/10 08:23:13;;;;;;;15.25;8.13;;;;;;;;;;5017007;28;21554;-73
2023/05/10 08:25:38;;;;;;;18.38;8.43;;;;;;;;;;5033426;28;20056;-73
2023/05/10 08:28:03;;;;;;;18.20;10.23;;;;;;;;;;5011031;28;20573;-71
2023/05/10 08:30:29;;;;;;;17.92;8.70;;;;;;;;;;5038991;28;20173;-71
2023/05/10 08:32:54;;;;;;;18.45;9.25;;;;;;;;;;5012339;28;20075;-70
2023/05/10 08:35:19;;;;;;;28.05;10.45;;;;;;;;;;5008221;28;20076;-72
2023/05/10 08:37:45;;;;;;;15.10;9.05;;;;;;;;;;5046896;28;20042;-71
2023/05/10 08:40:13;;;;;;;15.48;9.18;;;;;;;;;;5040271;28;20042;-71
2023/05/10 08:42:40;;;;;;;17.92;9.07;;;;;;;;;;5015758;28;25552;-71
2023/05/10 08:45:06;;;;;;;16.85;9.90;;;;;;;;;;5014531;28;20056;-72
2023/05/10 08:47:32;;;;;;;18.13;10.15;;;;;;;;;;5015112;28;20034;-71
2023/05/10 08:49:59;;;;;;;17.33;9.45;;;;;;;;;;5008106;28;20417;-72
2023/05/10 08:52:26;;;;;;;18.05;9.95;;;;;;;;;;5040377;28;20033;-74
2023/05/10 08:54:51;;;;;;;17.40;10.23;;;;;;;;;;5013583;28;20062;-73
2023/05/10 08:57:17;;;;;;;15.98;9.40;;;;;;;;;;5012547;28;20045;-71
2023/05/10 08:59:44;;;;;;;18.70;10.73;;;;;;;;;;5008327;28;21379;-73
2023/05/10 09:02:10;;;;;;;18.42;11.35;;;;;;;;;;5013369;28;20087;-72
2023/05/10 09:04:37;;;;;;;18.77;11.02;;;;;;;;;;5041455;28;20048;-72
2023/05/10 09:07:03;;;;;;;26.08;12.82;;;;;;;;;;5009175;28;20413;-72
2023/05/10 09:09:28;;;;;;;22.90;11.95;;;;;;;;;;5038888;28;20037;-71
2023/05/10 09:11:54;;;;;;;24.52;14.15;;;;;;;;;;5045479;28;20362;-68
2023/05/10 09:14:19;;;;;;;24.58;14.10;;;;;;;;;;5015490;28;20040;-73
2023/05/10 09:16:45;;;;;;;21.98;12.57;;;;;;;;;;4995133;28;20111;-72
2023/05/10 09:19:11;;;;;;;24.00;14.50;;;;;;;;;;4991176;28;20537;-76
2023/05/10 09:21:39;;;;;;;22.83;13.77;;;;;;;;;;4991935;28;20037;-71
2023/05/10 09:24:07;;;;;;;22.38;13.05;;;;;;;;;;4990739;28;20783;-78
2023/05/10 09:26:35;;;;;;;25.60;14.40;;;;;;;;;;4990908;28;20034;-76
2023/05/10 09:29:01;;;;;;;23.88;14.50;;;;;;;;;;4992129;28;20045;-73
2023/05/10 09:31:50;;;;;;;40.67;15.93;;;;;;;;;;5006334;28;20046;-74
2023/05/10 09:34:20;;;;;;;27.17;15.20;;;;;;;;;;4989087;28;20037;-74
2023/05/10 09:36:50;;;;;;;43.95;16.08;;;;;;;;;;4982325;28;20042;-75
2023/05/10 09:39:15;;;;;;;32.25;14.85;;;;;;;;;;5024777;28;20529;-74
2023/05/10 09:41:42;;;;;;;45.35;18.25;;;;;;;;;;5008206;28;20618;-73
2023/05/10 09:44:07;;;;;;;40.63;17.15;;;;;;;;;;5007338;28;20526;-74
2023/05/10 09:46:35;;;;;;;43.60;18.23;;;;;;;;;;5006963;28;20045;-73
2023/05/10 09:49:00;;;;;;;38.33;18.10;;;;;;;;;;5040687;28;20043;-73
2023/05/10 09:51:26;;;;;;;29.20;15.40;;;;;;;;;;5009485;28;20040;-73
2023/05/10 09:54:08;;;;;;;32.92;16.15;;;;;;;;;;5007940;28;20048;-74
2023/05/10 09:56:38;;;;;;;28.23;14.75;;;;;;;;;;5008066;28;20755;-73
2023/05/10 09:59:04;;;;;;;33.95;15.50;;;;;;;;;;5007954;28;20794;-78
2023/05/10 10:01:30;;;;;;;31.98;14.93;;;;;;;;;;5008481;28;20065;-73
2023/05/10 10:03:57;;;;;;;28.10;13.27;;;;;;;;;;5008360;28;20170;-74
2023/05/10 10:06:23;;;;;;;23.50;11.73;;;;;;;;;;5009598;28;20119;-72
2023/05/10 10:08:50;;;;;;;43.30;13.77;;;;;;;;;;5011123;28;20456;-74
2023/05/10 10:11:15;;;;;;;71.82;16.88;;;;;;;;;;5012417;28;20108;-74
2023/05/10 10:13:43;;;;;;;51.47;16.55;;;;;;;;;;5038049;28;20030;-72
2023/05/10 10:16:09;;;;;;;77.88;17.88;;;;;;;;;;5037815;28;20036;-76
2023/05/10 10:18:38;;;;;;;30.67;15.32;;;;;;;;;;5007335;28;20069;-75
2023/05/10 10:21:06;;;;;;;28.77;13.52;;;;;;;;;;5008327;28;20508;-74
2023/05/10 10:23:32;;;;;;;68.57;15.90;;;;;;;;;;5007632;28;20557;-74
2023/05/10 10:25:57;;;;;;;26.20;13.10;;;;;;;;;;5013580;28;20080;-73
2023/05/10 10:28:29;;;;;;;27.38;12.45;;;;;;;;;;5008912;28;20206;-74
2023/05/10 10:31:01;;;;;;;26.35;13.32;;;;;;;;;;5037502;28;20079;-74
2023/05/10 10:33:47;;;;;;;26.00;14.80;;;;;;;;;;4988182;28;20034;-74
2023/05/10 10:36:13;;;;;;;26.40;12.88;;;;;;;;;;4988447;28;20037;-73
2023/05/10 10:38:46;;;;;;;25.48;13.63;;;;;;;;;;5015280;28;20034;-74
2023/05/10 10:41:32;;;;;;;22.98;13.25;;;;;;;;;;4987785;28;20060;-74
2023/05/10 10:44:16;;;;;;;17.58;11.55;;;;;;;;;;4987540;28;20141;-74
2023/05/10 10:47:00;;;;;;;21.23;10.90;;;;;;;;;;5018950;28;20165;-74
2023/05/10 10:49:26;;;;;;;18.65;11.20;;;;;;;;;;4987691;28;20678;-75
2023/05/10 10:52:10;;;;;;;37.85;13.15;;;;;;;;;;5019711;28;20570;-74
2023/05/10 10:54:38;;;;;;;35.08;12.55;;;;;;;;;;4987905;28;20048;-74
2023/05/10 10:57:14;;;;;;;20.80;10.93;;;;;;;;;;4988308;28;20041;-74
2023/05/10 10:59:46;;;;;;;54.08;14.38;;;;;;;;;;4992549;28;20057;-75
2023/05/10 11:02:31;;;;;;;36.88;12.93;;;;;;;;;;5018498;28;20368;-75
2023/05/10 11:04:59;;;;;;;31.70;11.68;;;;;;;;;;4986083;28;20103;-74
2023/05/10 11:07:24;;;;;;;18.77;11.50;;;;;;;;;;5022420;28;20037;-74
2023/05/10 11:09:50;;;;;;;32.83;12.43;;;;;;;;;;4991717;28;21972;-75
2023/05/10 11:12:17;;;;;;;22.33;11.80;;;;;;;;;;5017842;28;20467;-73
2023/05/10 11:14:42;;;;;;;47.58;14.10;;;;;;;;;;4989212;28;20038;-75
2023/05/10 11:17:37;;;;;;;25.15;11.88;;;;;;;;;;4986458;28;20101;-76
2023/05/10 11:20:09;;;;;;;43.72;12.88;;;;;;;;;;5006297;28;20032;-75
2023/05/10 11:22:53;;;;;;;42.83;13.43;;;;;;;;;;5038305;28;20037;-75
2023/05/10 11:25:19;;;;;;;18.50;11.38;;;;;;;;;;4985449;28;20054;-77
2023/05/10 11:27:45;;;;;;;12.63;9.45;;;;;;;;;;4991245;28;20045;-75
2023/05/10 11:30:13;;;;;;;18.52;10.80;;;;;;;;;;4987150;28;20037;-76
2023/05/10 11:32:38;;;;;;;16.77;10.55;;;;;;;;;;4990104;28;20053;-75
2023/05/10 11:35:10;;;;;;;14.32;9.85;;;;;;;;;;4985605;28;20100;-76
2023/05/10 11:37:41;;;;;;;20.08;10.60;;;;;;;;;;4983422;28;20172;-74
2023/05/10 11:40:07;;;;;;;14.55;9.95;;;;;;;;;;4982828;28;20050;-75
2023/05/10 11:42:35;;;;;;;11.32;9.32;;;;;;;;;;4990353;28;20123;-74
2023/05/10 11:45:01;;;;;;;11.82;8.98;;;;;;;;;;4989061;28;20045;-75
2023/05/10 11:47:26;;;;;;;11.48;9.30;;;;;;;;;;4990569;28;20562;-75
2023/05/10 11:49:52;;;;;;;13.45;8.90;;;;;;;;;;4991672;28;20040;-75
2023/05/10 11:52:18;;;;;;;19.67;10.30;;;;;;;;;;4988313;28;20573;-75
2023/05/10 11:54:53;;;;;;;18.38;11.30;;;;;;;;;;4987731;28;20038;-75
2023/05/10 11:57:20;;;;;;;21.70;11.15;;;;;;;;;;4986454;28;20708;-75
2023/05/10 11:59:47;;;;;;;20.13;11.88;;;;;;;;;;4989353;28;20042;-73
2023/05/10 12:02:13;;;;;;;32.40;12.52;;;;;;;;;;4990107;28;20033;-77
2023/05/10 12:04:39;;;;;;;22.17;11.88;;;;;;;;;;4994599;28;20041;-75
2023/05/10 12:07:04;;;;;;;16.45;11.98;;;;;;;;;;4986659;28;20251;-75
2023/05/10 12:09:32;;;;;;;17.48;9.88;;;;;;;;;;4986793;28;20034;-74
2023/05/10 12:11:57;;;;;;;18.08;11.00;;;;;;;;;;4987071;28;20561;-74
2023/05/10 12:14:24;;;;;;;16.98;11.43;;;;;;;;;;4996487;28;20076;-73
2023/05/10 12:16:49;;;;;;;17.05;11.50;;;;;;;;;;5009369;28;20079;-74
2023/05/10 12:19:18;;;;;;;14.63;9.43;;;;;;;;;;5009673;28;20061;-74
2023/05/10 12:21:43;;;;;;;10.70;8.23;;;;;;;;;;5021775;28;20808;-75
2023/05/10 12:24:16;;;;;;;9.75;7.60;;;;;;;;;;5009461;28;20206;-74
2023/05/10 12:26:41;;;;;;;10.10;7.57;;;;;;;;;;5008141;28;20191;-73
2023/05/10 12:29:13;;;;;;;9.18;7.10;;;;;;;;;;5010239;28;20110;-75
2023/05/10 12:31:51;;;;;;;10.48;7.43;;;;;;;;;;5007962;28;20052;-74
2023/05/10 12:34:23;;;;;;;9.82;7.57;;;;;;;;;;5009114;28;20073;-73
2023/05/10 12:36:54;;;;;;;12.55;8.07;;;;;;;;;;5007089;28;20037;-74
2023/05/10 12:39:19;;;;;;;16.13;8.38;;;;;;;;;;5007664;28;20369;-74
2023/05/10 12:41:44;;;;;;;13.55;8.93;;;;;;;;;;5034098;28;20038;-72
2023/05/10 12:44:10;;;;;;;16.92;8.73;;;;;;;;;;5008386;28;22341;-74
2023/05/10 12:46:35;;;;;;;16.05;9.43;;;;;;;;;;5004611;28;20064;-74
2023/05/10 12:49:00;;;;;;;18.15;10.23;;;;;;;;;;5009997;28;20894;-74
2023/05/10 12:51:28;;;;;;;15.60;9.13;;;;;;;;;;5007558;28;20033;-75
2023/05/10 12:53:54;;;;;;;20.67;10.35;;;;;;;;;;5038535;28;20045;-74
2023/05/10 12:56:20;;;;;;;18.00;9.27;;;;;;;;;;5042841;28;20463;-71
2023/05/10 12:58:47;;;;;;;13.98;8.40;;;;;;;;;;5040135;28;22374;-74
2023/05/10 13:01:13;;;;;;;14.25;8.32;;;;;;;;;;5015643;28;20037;-74
2023/05/10 13:03:38;;;;;;;16.60;8.75;;;;;;;;;;5008792;28;20620;-74
2023/05/10 13:06:03;;;;;;;12.60;8.20;;;;;;;;;;5040928;28;20025;-77
2023/05/10 13:08:33;;;;;;;14.13;8.35;;;;;;;;;;5005615;28;20156;-76
2023/05/10 13:10:59;;;;;;;19.88;9.18;;;;;;;;;;5029839;28;20033;-73
2023/05/10 13:13:26;;;;;;;19.25;9.73;;;;;;;;;;5006169;28;20034;-76
2023/05/10 13:15:54;;;;;;;22.38;11.38;;;;;;;;;;5004490;28;20033;-76
2023/05/10 13:18:21;;;;;;;16.50;9.68;;;;;;;;;;5006529;28;20033;-74
2023/05/10 13:20:47;;;;;;;14.00;7.82;;;;;;;;;;5006636;28;20427;-77
2023/05/10 13:23:12;;;;;;;10.85;7.40;;;;;;;;;;5008026;28;20392;-77
2023/05/10 13:25:37;;;;;;;12.95;8.07;;;;;;;;;;5006162;28;20068;-76
2023/05/10 13:28:03;;;;;;;14.18;8.65;;;;;;;;;;5005222;28;20386;-76
2023/05/10 13:30:28;;;;;;;16.25;9.38;;;;;;;;;;5005770;28;20042;-77
2023/05/10 13:32:54;;;;;;;13.85;8.75;;;;;;;;;;5005000;28;20048;-74
2023/05/10 13:35:19;;;;;;;17.25;9.40;;;;;;;;;;5038791;28;20164;-78
2023/05/10 13:37:44;;;;;;;15.65;8.93;;;;;;;;;;5024767;28;20036;-78
2023/05/10 13:40:13;;;;;;;12.63;7.88;;;;;;;;;;5009652;28;22253;-72
2023/05/10 13:42:39;;;;;;;12.82;8.60;;;;;;;;;;5033771;28;20048;-70
2023/05/10 13:45:05;;;;;;;13.15;8.25;;;;;;;;;;5002695;28;20160;-70
2023/05/10 13:47:30;;;;;;;11.55;7.85;;;;;;;;;;5004220;28;20034;-75
2023/05/10 13:49:57;;;;;;;11.00;7.40;;;;;;;;;;5002669;28;20044;-70
2023/05/10 13:52:22;;;;;;;9.60;6.72;;;;;;;;;;5003286;28;20033;-69
2023/05/10 13:54:51;;;;;;;10.52;7.40;;;;;;;;;;5007725;28;20040;-70
2023/05/10 13:57:19;;;;;;;11.23;8.23;;;;;;;;;;5008411;28;20068;-70
2023/05/10 13:59:44;;;;;;;12.65;8.43;;;;;;;;;;5009226;28;21056;-70
2023/05/10 14:02:12;;;;;;;11.35;7.65;;;;;;;;;;5038670;28;20030;-70
2023/05/10 14:04:38;;;;;;;9.63;7.03;;;;;;;;;;5027154;28;20046;-71
2023/05/10 14:07:03;;;;;;;8.57;6.82;;;;;;;;;;4988019;28;20042;-71
2023/05/10 14:09:32;;;;;;;11.82;8.15;;;;;;;;;;4993233;28;20754;-71
2023/05/10 14:12:03;;;;;;;10.82;8.10;;;;;;;;;;4990408;28;20110;-70
2023/05/10 14:14:29;;;;;;;10.20;7.28;;;;;;;;;;4989096;28;20038;-72
2023/05/10 14:16:56;;;;;;;9.70;6.97;;;;;;;;;;4996862;28;20091;-71
2023/05/10 14:19:21;;;;;;;10.85;7.65;;;;;;;;;;4989331;28;20034;-72
2023/05/10 14:21:47;;;;;;;12.20;8.48;;;;;;;;;;4990164;28;20841;-72